Time;durP1;ratioP1;P1;durP2;ratioP2;P2;SDS_P1;SDS_P2;PMS_P1;PMS_P2;Temp;Humidity;BMP_temperature;BMP_pressure;BME280_temperature;BME280_humidity;BME280_pressure;Samples;Min_cycle;Max_cycle;Signal;HPM_P1;HPM_P2
2023/04/01 00:01:53;;;;;;;1.17;0.35;;;;;;;10.46;62.74;95348.19;6185281;23;20552;-77
2023/04/01 00:04:21;;;;;;;1.25;0.68;;;;;;;10.45;63.94;95344.78;6185323;23;20021;-77
2023/04/01 00:06:51;;;;;;;1.45;0.60;;;;;;;10.42;63.45;95344.41;6185867;23;20357;-77
2023/04/01 00:09:19;;;;;;;0.52;0.30;;;;;;;10.35;63.93;95343.66;6185430;23;20036;-77
2023/04/01 00:11:46;;;;;;;3.20;0.38;;;;;;;10.30;63.95;95332.06;6185659;23;20055;-77
2023/04/01 00:14:14;;;;;;;1.83;0.10;;;;;;;10.33;63.62;95341.25;6184957;23;20017;-77
2023/04/01 00:16:41;;;;;;;0.47;0.40;;;;;;;10.35;63.78;95343.66;6185693;23;20459;-77
2023/04/01 00:19:09;;;;;;;0.75;0.40;;;;;;;10.35;64.43;95338.44;6185476;23;20022;-77
2023/04/01 00:21:36;;;;;;;2.92;0.20;;;;;;;10.36;64.35;95334.81;6185112;23;20056;-77
2023/04/01 00:24:06;;;;;;;0.90;0.40;;;;;;;10.36;64.14;95330.41;6184875;23;20025;-77
2023/04/01 00:26:34;;;;;;;1.65;0.47;;;;;;;10.36;63.47;95335.63;6184940;23;20025;-77
2023/04/01 00:29:01;;;;;;;0.95;0.32;;;;;;;10.36;64.16;95340.81;6185407;23;20028;-77
2023/04/01 00:31:29;;;;;;;1.17;0.35;;;;;;;10.35;63.29;95334.03;6185255;23;20391;-77
2023/04/01 00:33:57;;;;;;;1.80;0.35;;;;;;;10.34;63.74;95332.41;6185386;23;20060;-77
2023/04/01 00:36:25;;;;;;;1.35;0.30;;;;;;;10.34;62.91;95322.00;6185013;23;20025;-77
2023/04/01 00:38:52;;;;;;;1.38;0.38;;;;;;;10.34;62.37;95331.63;6185447;23;20021;-77
2023/04/01 00:41:21;;;;;;;1.30;0.17;;;;;;;10.31;62.90;95335.44;6185209;23;20045;-78
2023/04/01 00:43:51;;;;;;;1.75;0.20;;;;;;;10.30;63.97;95337.28;6185376;23;20021;-77
2023/04/01 00:46:19;;;;;;;2.38;0.45;;;;;;;10.30;63.28;95334.66;6185488;23;20025;-77
2023/04/01 00:48:51;;;;;;;0.98;0.30;;;;;;;10.30;63.24;95326.84;6195728;23;20029;-77
2023/04/01 00:51:22;;;;;;;2.35;0.52;;;;;;;10.29;64.50;95338.25;6198867;23;20054;-77
2023/04/01 00:53:53;;;;;;;3.72;0.43;;;;;;;10.30;63.19;95332.06;6199863;23;20025;-77
2023/04/01 00:56:25;;;;;;;1.15;0.45;;;;;;;10.30;64.97;95334.66;6191449;23;20025;-77
2023/04/01 00:58:58;;;;;;;3.05;0.52;;;;;;;10.29;64.23;95330.44;6187467;23;20020;-77
2023/04/01 01:01:26;;;;;;;2.55;0.80;;;;;;;10.27;64.36;95342.84;6186318;23;20385;-77
2023/04/01 01:03:54;;;;;;;2.50;0.38;;;;;;;10.29;65.16;95325.22;6185718;23;20024;-78
2023/04/01 01:06:38;;;;;;;0.77;0.63;;;;;;;10.29;63.29;95322.63;6185934;23;20092;-77
2023/04/01 01:09:18;;;;;;;2.70;0.43;;;;;;;10.29;65.25;95320.00;6184977;23;20096;-77
2023/04/01 01:11:51;;;;;;;2.13;0.40;;;;;;;10.30;64.34;95321.63;6185016;23;20021;-77
2023/04/01 01:14:35;;;;;;;1.15;0.30;;;;;;;10.31;66.64;95328.44;6185415;23;20418;-77
2023/04/01 01:17:11;;;;;;;3.70;0.80;;;;;;;10.33;63.59;95330.03;6185251;23;20092;-77
2023/04/01 01:20:11;;;;;;;0.93;0.38;;;;;;;10.34;63.26;95321.19;6185480;23;20104;-77
2023/04/01 01:23:07;;;;;;;1.15;0.30;;;;;;;10.28;63.88;95323.63;6184782;23;20032;-77
2023/04/01 01:25:41;;;;;;;;;;;;;;;10.30;63.90;95326.84;6185730;23;20021;-77
2023/04/01 01:28:18;;;;;;;;;;;;;;;10.29;62.92;95316.63;6185343;23;19954;-77
2023/04/01 01:30:57;;;;;;;2.67;0.40;;;;;;;10.22;61.54;95328.88;6185508;23;19923;-78
2023/04/01 01:33:35;;;;;;;2.50;0.35;;;;;;;10.21;63.66;95311.63;6195539;23;20025;-78
2023/04/01 01:36:07;;;;;;;2.15;0.35;;;;;;;10.21;63.48;95311.63;6204170;23;20025;-77
2023/04/01 01:38:36;;;;;;;2.90;0.82;;;;;;;10.23;63.79;95315.66;6202393;23;20020;-77
2023/04/01 01:41:06;;;;;;;1.15;0.47;;;;;;;10.24;62.74;95335.47;6190158;23;20451;-77
2023/04/01 01:43:38;;;;;;;3.47;0.65;;;;;;;10.21;63.20;95330.69;6184886;23;20032;-77
2023/04/01 01:46:10;;;;;;;1.83;0.50;;;;;;;10.17;62.44;95319.09;6184910;23;20031;-77
2023/04/01 01:48:39;;;;;;;1.58;0.20;;;;;;;10.16;63.47;95319.28;6187354;23;20112;-77
2023/04/01 01:51:09;;;;;;;0.70;0.40;;;;;;;10.17;65.05;95323.50;6187052;23;20021;-77
2023/04/01 01:53:37;;;;;;;0.80;0.28;;;;;;;10.18;64.67;95332.91;6186397;23;20024;-77
2023/04/01 01:56:05;;;;;;;1.67;0.22;;;;;;;10.16;64.15;95327.91;6186969;23;20021;-77
2023/04/01 01:58:40;;;;;;;1.33;0.25;;;;;;;10.13;65.10;95330.13;6187265;23;20017;-77
2023/04/01 02:01:11;;;;;;;0.82;0.20;;;;;;;10.08;64.62;95318.53;6186856;23;20032;-77
2023/04/01 02:03:41;;;;;;;0.57;0.10;;;;;;;10.06;63.99;95327.56;6186769;23;20059;-77
2023/04/01 02:06:14;;;;;;;1.35;0.20;;;;;;;10.03;65.86;95326.16;6186582;23;20025;-77
2023/04/01 02:08:46;;;;;;;0.63;0.10;;;;;;;10.01;65.09;95324.78;6196658;23;20021;-77
2023/04/01 02:11:18;;;;;;;3.28;1.15;;;;;;;9.97;64.80;95319.22;6210478;23;20021;-77
2023/04/01 02:13:48;;;;;;;;;;;;;;;9.97;65.05;95331.41;6210309;23;20032;-77
2023/04/01 02:16:21;;;;;;;0.80;0.28;;;;;;;9.93;65.98;95320.63;6195279;23;19922;-77
2023/04/01 02:18:53;;;;;;;0.45;0.20;;;;;;;9.95;65.55;95323.81;6189340;23;20509;-77
2023/04/01 02:21:25;;;;;;;1.35;0.20;;;;;;;9.96;65.65;95319.41;6187205;23;20028;-77
2023/04/01 02:23:54;;;;;;;0.95;0.13;;;;;;;9.95;65.75;95334.25;6187409;23;20032;-77
2023/04/01 02:26:23;;;;;;;0.82;0.20;;;;;;;9.95;66.63;95323.00;6187344;23;20099;-77
2023/04/01 02:28:53;;;;;;;2.95;0.25;;;;;;;9.95;65.66;95330.81;6186690;23;20099;-77
2023/04/01 02:31:22;;;;;;;1.55;0.20;;;;;;;9.92;65.56;95323.44;6186777;23;20017;-77
2023/04/01 02:33:50;;;;;;;0.55;0.20;;;;;;;9.87;66.48;95324.84;6186454;23;20056;-77
2023/04/01 02:36:18;;;;;;;0.65;0.20;;;;;;;9.84;65.91;95335.69;6186942;23;20021;-78
2023/04/01 02:38:48;;;;;;;1.55;0.10;;;;;;;9.81;67.62;95337.91;6186768;23;20022;-77
2023/04/01 02:41:16;;;;;;;1.13;0.43;;;;;;;9.80;67.44;95336.31;6186010;23;20072;-78
2023/04/01 02:43:43;;;;;;;0.40;0.25;;;;;;;9.81;68.04;95328.28;6186208;23;20023;-77
2023/04/01 02:46:11;;;;;;;0.50;0.20;;;;;;;9.84;67.35;95327.09;6186279;23;20021;-77
2023/04/01 02:48:38;;;;;;;2.50;0.32;;;;;;;9.84;68.49;95330.50;6186907;23;20025;-77
2023/04/01 02:51:06;;;;;;;0.77;0.38;;;;;;;9.83;67.15;95328.88;6186382;23;20021;-77
2023/04/01 02:53:33;;;;;;;0.75;0.10;;;;;;;9.82;67.36;95332.50;6186691;23;20021;-77
2023/04/01 02:56:02;;;;;;;0.45;0.10;;;;;;;9.80;67.38;95326.69;6186810;23;20021;-77
2023/04/01 02:58:30;;;;;;;0.63;0.10;;;;;;;9.77;66.88;95332.31;6186229;23;20025;-77
2023/04/01 03:00:57;;;;;;;0.35;0.20;;;;;;;9.75;68.00;95339.56;6207283;23;20045;-77
2023/04/01 03:03:25;;;;;;;0.47;0.20;;;;;;;9.77;67.96;95340.13;6211061;23;20021;-77
2023/04/01 03:05:55;;;;;;;1.15;0.10;;;;;;;9.78;67.94;95335.72;6189043;23;20021;-76
2023/04/01 03:08:22;;;;;;;0.75;0.10;;;;;;;9.75;66.46;95328.31;6185663;23;20032;-76
2023/04/01 03:10:50;;;;;;;0.65;0.10;;;;;;;9.69;67.25;95343.78;6185644;23;20091;-76
2023/04/01 03:13:19;;;;;;;0.47;0.10;;;;;;;9.67;67.59;95342.38;6185240;23;20057;-77
2023/04/01 03:15:46;;;;;;;0.95;0.10;;;;;;;9.65;67.01;95347.00;6185546;23;20032;-76
2023/04/01 03:18:14;;;;;;;0.20;0.10;;;;;;;9.64;66.80;95348.81;6185614;23;20392;-76
2023/04/01 03:20:42;;;;;;;1.48;0.20;;;;;;;9.59;65.55;95340.81;6185550;23;20025;-77
2023/04/01 03:23:09;;;;;;;1.15;0.20;;;;;;;9.56;66.82;95343.03;6184976;23;20031;-76
2023/04/01 03:25:37;;;;;;;1.60;0.20;;;;;;;9.54;66.28;95352.84;6185167;23;20029;-76
2023/04/01 03:28:05;;;;;;;0.13;0.10;;;;;;;9.56;66.51;95337.81;6185614;23;20419;-76
2023/04/01 03:30:34;;;;;;;0.43;0.20;;;;;;;9.57;66.70;95349.81;6185673;23;20351;-76
2023/04/01 03:33:02;;;;;;;0.57;0.10;;;;;;;9.54;66.01;95351.03;6185457;23;20037;-76
2023/04/01 03:35:30;;;;;;;2.08;0.32;;;;;;;9.54;65.55;95339.84;6185345;23;20028;-76
2023/04/01 03:37:58;;;;;;;0.52;0.10;;;;;;;9.52;66.28;95336.63;6185471;23;20063;-76
2023/04/01 03:40:26;;;;;;;1.08;0.10;;;;;;;9.52;66.10;95353.06;6185498;23;20028;-76
2023/04/01 03:42:53;;;;;;;0.95;0.30;;;;;;;9.54;65.91;95334.63;6184677;23;20100;-77
2023/04/01 03:45:21;;;;;;;0.60;0.10;;;;;;;9.57;66.75;95340.19;6185441;23;20025;-77
2023/04/01 03:47:50;;;;;;;1.20;0.10;;;;;;;9.61;65.92;95345.81;6184893;23;20467;-77
2023/04/01 03:50:17;;;;;;;0.85;0.00;;;;;;;9.63;66.88;95336.00;6184935;23;20068;-77
2023/04/01 03:52:45;;;;;;;1.40;0.15;;;;;;;9.59;65.46;95340.81;6185203;23;20021;-76
2023/04/01 03:55:13;;;;;;;0.38;0.00;;;;;;;9.57;66.42;95339.41;6185374;23;20339;-76
2023/04/01 03:57:40;;;;;;;0.82;0.10;;;;;;;9.56;65.54;95345.63;6185232;23;20099;-77
2023/04/01 04:00:09;;;;;;;1.20;0.10;;;;;;;9.55;65.87;95344.81;6184727;23;20657;-77
2023/04/01 04:02:36;;;;;;;1.58;0.38;;;;;;;9.57;66.18;95342.00;6184649;23;20094;-77
2023/04/01 04:05:06;;;;;;;0.80;0.43;;;;;;;9.57;66.66;95339.41;6184522;23;20021;-77
2023/04/01 04:07:35;;;;;;;0.47;0.00;;;;;;;9.55;64.58;95344.03;6184694;23;20108;-76
2023/04/01 04:10:02;;;;;;;0.63;0.13;;;;;;;9.54;65.70;95337.22;6184632;23;20044;-76
2023/04/01 04:12:30;;;;;;;1.17;0.10;;;;;;;9.56;63.97;95335.22;6184887;23;20108;-76
2023/04/01 04:14:57;;;;;;;0.55;0.10;;;;;;;9.55;64.07;95336.22;6184658;23;20025;-77
2023/04/01 04:17:25;;;;;;;3.30;0.38;;;;;;;9.52;63.77;95360.84;6184887;23;20047;-77
2023/04/01 04:19:53;;;;;;;0.68;0.00;;;;;;;9.47;64.71;95358.88;6185080;23;20032;-77
2023/04/01 04:22:22;;;;;;;0.73;0.17;;;;;;;9.45;65.19;95347.88;6184635;23;20037;-77
2023/04/01 04:24:49;;;;;;;0.40;0.10;;;;;;;9.44;65.55;95348.84;6184887;23;20416;-76
2023/04/01 04:27:17;;;;;;;2.30;0.40;;;;;;;9.42;64.71;95344.84;6185177;23;20395;-76
2023/04/01 04:29:45;;;;;;;1.70;0.10;;;;;;;9.41;65.57;95343.28;6194465;23;20025;-77
2023/04/01 04:32:12;;;;;;;0.43;0.15;;;;;;;9.40;65.22;95347.69;6201259;23;20504;-77
2023/04/01 04:34:40;;;;;;;0.63;0.25;;;;;;;9.41;63.88;95344.06;6193738;23;20077;-77
2023/04/01 04:37:07;;;;;;;1.58;0.10;;;;;;;9.38;64.19;95348.88;6185470;23;20103;-77
2023/04/01 04:39:36;;;;;;;0.65;0.05;;;;;;;9.36;65.27;95336.09;6184747;23;20021;-77
2023/04/01 04:42:04;;;;;;;1.08;0.10;;;;;;;9.34;65.50;95338.09;6185040;23;20047;-76
2023/04/01 04:44:31;;;;;;;0.60;0.20;;;;;;;9.32;63.94;95328.91;6185285;23;20025;-77
2023/04/01 04:46:59;;;;;;;1.00;0.20;;;;;;;9.29;63.83;95345.69;6184818;23;20109;-76
2023/04/01 04:49:27;;;;;;;2.67;0.68;;;;;;;9.27;63.36;95330.31;6184345;23;20493;-76
2023/04/01 04:51:54;;;;;;;0.20;0.10;;;;;;;9.27;63.71;95356.31;6184315;23;20025;-77
2023/04/01 04:54:22;;;;;;;0.40;0.17;;;;;;;9.23;64.23;95356.94;6184800;23;20028;-76
2023/04/01 04:56:51;;;;;;;0.77;0.20;;;;;;;9.23;64.45;95356.94;6185377;23;20029;-76
2023/04/01 04:59:19;;;;;;;0.10;0.10;;;;;;;9.21;63.77;95343.34;6184765;23;20363;-76
2023/04/01 05:01:47;;;;;;;2.45;0.50;;;;;;;9.24;65.39;95350.72;6184149;23;20056;-77
2023/04/01 05:04:15;;;;;;;0.80;0.17;;;;;;;9.25;63.68;95352.34;6184628;23;20064;-76
2023/04/01 05:06:44;;;;;;;0.28;0.10;;;;;;;9.30;65.89;95343.91;6184645;23;20079;-76
2023/04/01 05:09:12;;;;;;;1.35;0.10;;;;;;;9.33;64.85;95353.91;6184150;23;20103;-76
2023/04/01 05:11:40;;;;;;;0.95;0.20;;;;;;;9.34;65.32;95358.13;6184273;23;20028;-76
2023/04/01 05:14:13;;;;;;;0.80;0.08;;;;;;;9.36;65.55;95349.09;6184775;23;20064;-77
2023/04/01 05:16:40;;;;;;;0.80;0.10;;;;;;;9.37;64.72;95348.09;6184580;23;20021;-76
2023/04/01 05:19:08;;;;;;;6.88;1.38;;;;;;;9.37;63.89;95350.69;6184544;23;20083;-77
2023/04/01 05:21:35;;;;;;;1.42;0.35;;;;;;;9.38;65.25;95344.50;6183537;23;20017;-77
2023/04/01 05:24:03;;;;;;;0.47;0.20;;;;;;;9.39;64.74;95351.28;6184796;23;20029;-76
2023/04/01 05:26:32;;;;;;;0.52;0.13;;;;;;;9.39;63.59;95335.66;6184841;23;20021;-76
2023/04/01 05:28:59;;;;;;;0.73;0.10;;;;;;;9.39;64.30;95333.06;6184375;23;20104;-76
2023/04/01 05:31:28;;;;;;;0.65;0.10;;;;;;;9.42;64.37;95344.84;6184241;23;20039;-76
2023/04/01 05:33:56;;;;;;;0.57;0.45;;;;;;;9.45;64.88;95345.25;6184827;23;20079;-76
2023/04/01 05:36:24;;;;;;;1.00;0.30;;;;;;;9.45;64.72;95336.66;6184657;23;20040;-76
2023/04/01 05:38:51;;;;;;;2.40;0.20;;;;;;;9.45;63.33;95340.06;6184378;23;20025;-76
2023/04/01 05:41:19;;;;;;;1.35;0.20;;;;;;;9.49;65.32;95351.66;6183989;23;20025;-76
2023/04/01 05:43:46;;;;;;;0.43;0.13;;;;;;;9.52;64.16;95331.44;6184741;23;20027;-77
2023/04/01 05:46:14;;;;;;;1.20;0.20;;;;;;;9.51;64.56;95332.41;6184398;23;20020;-76
2023/04/01 05:48:43;;;;;;;3.75;1.05;;;;;;;9.57;64.67;95347.22;6183916;23;20017;-77
2023/04/01 05:51:13;;;;;;;1.85;0.30;;;;;;;9.61;65.36;95343.19;6184482;23;20021;-76
2023/04/01 05:53:40;;;;;;;1.33;0.40;;;;;;;9.59;64.93;95334.81;6184344;23;20027;-76
2023/04/01 05:56:09;;;;;;;1.42;0.20;;;;;;;9.58;63.21;95333.22;6184311;23;20029;-76
2023/04/01 05:58:36;;;;;;;1.13;0.20;;;;;;;9.58;63.77;95344.41;6183875;23;20024;-76
2023/04/01 06:01:06;;;;;;;0.40;0.20;;;;;;;9.56;63.48;95348.25;6184175;23;20021;-76
2023/04/01 06:03:39;;;;;;;2.80;0.50;;;;;;;9.57;63.60;95337.59;6184231;23;20121;-76
2023/04/01 06:06:15;;;;;;;0.35;0.15;;;;;;;9.59;64.14;95334.81;6183945;23;20028;-76
2023/04/01 06:08:43;;;;;;;0.73;0.20;;;;;;;9.61;63.83;95338.00;6184818;23;20075;-77
2023/04/01 06:11:23;;;;;;;0.93;0.10;;;;;;;9.63;63.72;95336.00;6184928;23;20023;-77
2023/04/01 06:14:05;;;;;;;1.10;0.22;;;;;;;9.64;63.72;95337.56;6184379;23;20477;-76
2023/04/01 06:16:42;;;;;;;2.58;0.47;;;;;;;9.67;63.07;95348.38;6184635;23;20101;-77
2023/04/01 06:19:24;;;;;;;2.65;0.13;;;;;;;9.72;63.52;95347.75;6185383;23;20076;-77
2023/04/01 06:22:18;;;;;;;1.13;0.30;;;;;;;9.75;63.51;95342.16;6184593;23;20028;-76
2023/04/01 06:25:08;;;;;;;0.73;0.30;;;;;;;9.76;63.26;95346.34;6184778;23;20057;-77
2023/04/01 06:27:50;;;;;;;0.30;0.10;;;;;;;9.77;62.65;95347.13;6184563;23;20025;-77
2023/04/01 06:30:34;;;;;;;5.13;0.47;;;;;;;9.81;62.83;95348.31;6184615;23;20032;-76
2023/04/01 06:33:20;;;;;;;0.15;0.13;;;;;;;9.82;63.23;95348.13;6184532;23;20032;-76
2023/04/01 06:36:15;;;;;;;1.55;0.15;;;;;;;9.88;62.76;95351.69;6186299;23;20059;-77
2023/04/01 06:39:05;;;;;;;1.10;0.32;;;;;;;9.88;62.61;95338.66;6186091;23;20021;-76
2023/04/01 06:42:19;;;;;;;2.38;0.22;;;;;;;9.88;59.62;95336.88;6185176;23;20467;-76
2023/04/01 06:45:01;;;;;;;1.10;0.10;;;;;;;9.90;63.05;95341.88;6037084;23;20027;-76
2023/04/01 06:47:42;;;;;;;0.40;0.10;;;;;;;9.93;61.12;95335.44;6036782;23;20105;-77
2023/04/01 06:50:20;;;;;;;1.00;0.15;;;;;;;9.94;59.96;95350.06;6134208;23;20020;-79
2023/04/01 06:52:56;;;;;;;0.20;0.10;;;;;;;9.96;60.45;95324.63;6185744;23;20336;-77
2023/04/01 06:55:37;;;;;;;0.68;0.10;;;;;;;10.00;59.60;95315.38;6183612;23;20021;-76
2023/04/01 06:58:11;;;;;;;1.17;0.10;;;;;;;10.02;61.60;95321.97;6185958;23;20510;-77
2023/04/01 07:00:43;;;;;;;0.85;0.08;;;;;;;10.05;61.21;95315.53;6184255;23;20021;-77
2023/04/01 07:03:20;;;;;;;0.50;0.28;;;;;;;10.06;60.08;95304.13;6185728;23;20025;-78
2023/04/01 07:05:48;;;;;;;0.73;0.20;;;;;;;10.09;60.51;95319.31;6185931;23;20039;-77
2023/04/01 07:08:21;;;;;;;1.17;0.70;;;;;;;10.14;61.20;95310.88;6193237;23;20056;-78
2023/04/01 07:10:54;;;;;;;0.60;0.28;;;;;;;10.18;61.02;95312.84;6201722;23;20457;-78
2023/04/01 07:13:27;;;;;;;2.05;0.20;;;;;;;10.22;60.49;95308.03;6202284;23;20021;-78
2023/04/01 07:16:05;;;;;;;1.35;0.20;;;;;;;10.27;61.18;95319.41;6202235;23;20021;-77
2023/04/01 07:18:38;;;;;;;0.10;0.10;;;;;;;10.29;61.65;95312.19;6201550;23;20051;-77
2023/04/01 07:21:11;;;;;;;2.30;0.20;;;;;;;10.31;61.66;95314.59;6200867;23;20049;-76
2023/04/01 07:23:45;;;;;;;0.98;0.10;;;;;;;10.36;62.54;95321.78;6188118;23;20016;-77
2023/04/01 07:26:21;;;;;;;1.05;0.30;;;;;;;10.38;60.68;95311.94;6187580;23;20439;-77
2023/04/01 07:28:49;;;;;;;0.47;0.20;;;;;;;10.41;60.06;95320.16;6187554;23;20676;-77
2023/04/01 07:31:27;;;;;;;0.65;0.17;;;;;;;10.42;61.57;95324.34;6192388;23;20052;-77
2023/04/01 07:34:02;;;;;;;1.27;0.15;;;;;;;10.43;61.43;95319.91;6200068;23;20025;-77
2023/04/01 07:36:37;;;;;;;0.80;0.30;;;;;;;10.45;61.62;95308.28;6193732;23;20077;-77
2023/04/01 07:39:13;;;;;;;0.90;0.20;;;;;;;10.47;59.65;95318.50;6187073;23;20542;-76
2023/04/01 07:41:50;;;;;;;0.35;0.20;;;;;;;10.50;62.79;95328.50;6185857;23;20027;-79
2023/04/01 07:44:29;;;;;;;1.98;0.40;;;;;;;10.52;60.66;95321.28;6185496;23;20025;-79
2023/04/01 07:47:09;;;;;;;0.90;0.20;;;;;;;10.48;59.56;95322.72;6186238;23;20028;-76
2023/04/01 07:49:50;;;;;;;1.02;0.10;;;;;;;10.39;59.44;95324.78;6185611;23;20120;-76
2023/04/01 07:52:23;;;;;;;0.40;0.10;;;;;;;10.35;62.23;95321.00;6185787;23;20028;-77
2023/04/01 07:54:57;;;;;;;0.73;0.10;;;;;;;10.35;60.07;95325.41;6184883;23;20104;-77
2023/04/01 07:57:34;;;;;;;0.75;0.30;;;;;;;10.33;59.96;95330.03;6185568;23;20522;-77
2023/04/01 08:00:09;;;;;;;0.30;0.22;;;;;;;10.27;61.08;95326.44;6185578;23;20021;-77
2023/04/01 08:02:53;;;;;;;0.30;0.30;;;;;;;10.26;60.93;95333.44;6185133;23;20059;-76
2023/04/01 08:05:27;;;;;;;1.65;0.28;;;;;;;10.23;60.95;95327.84;6185272;23;20025;-76
2023/04/01 08:08:03;;;;;;;0.40;0.10;;;;;;;10.18;62.04;95323.28;6184846;23;20032;-77
2023/04/01 08:10:37;;;;;;;0.80;0.20;;;;;;;10.20;62.67;95331.69;6184925;23;20027;-77
2023/04/01 08:13:13;;;;;;;1.08;0.30;;;;;;;10.23;62.43;95331.28;6184774;23;20451;-77
2023/04/01 08:15:50;;;;;;;1.13;0.20;;;;;;;10.19;62.49;95324.88;6185202;23;20024;-77
2023/04/01 08:18:30;;;;;;;0.80;0.30;;;;;;;10.20;62.84;95333.50;6183730;23;20079;-76
2023/04/01 08:21:00;;;;;;;1.60;0.20;;;;;;;10.19;63.13;95327.50;6184916;23;20017;-76
2023/04/01 08:23:31;;;;;;;0.55;0.38;;;;;;;10.19;63.81;95324.06;6184889;23;20025;-76
2023/04/01 08:26:03;;;;;;;0.38;0.20;;;;;;;10.20;63.10;95328.28;6185206;23;20132;-77
2023/04/01 08:28:38;;;;;;;0.85;0.20;;;;;;;10.20;63.49;95331.69;6184793;23;20455;-76
2023/04/01 08:31:12;;;;;;;0.82;0.40;;;;;;;10.21;63.34;95333.28;6184878;23;20075;-76
2023/04/01 08:33:42;;;;;;;0.70;0.20;;;;;;;10.23;64.24;95341.69;6184795;23;20021;-77
2023/04/01 08:36:16;;;;;;;1.10;0.20;;;;;;;10.27;64.94;95329.81;6185317;23;20037;-77
2023/04/01 08:38:47;;;;;;;0.82;0.30;;;;;;;10.31;66.52;95332.84;6184088;23;20017;-78
2023/04/01 08:41:38;;;;;;;0.88;0.30;;;;;;;10.28;67.67;95334.03;6184390;23;20021;-78
2023/04/01 08:44:25;;;;;;;1.92;0.20;;;;;;;10.34;67.62;95336.84;6184444;23;20105;-78
2023/04/01 08:47:14;;;;;;;0.50;0.20;;;;;;;10.40;68.99;95334.19;6183655;23;20021;-77
2023/04/01 08:50:19;;;;;;;3.80;0.45;;;;;;;10.40;65.77;95333.38;6184229;23;20027;-77
2023/04/01 08:52:53;;;;;;;1.15;0.20;;;;;;;10.39;68.16;95339.63;6183504;23;20028;-77
2023/04/01 08:55:31;;;;;;;0.52;0.10;;;;;;;10.40;67.97;95328.19;6184860;23;20021;-77
2023/04/01 08:58:38;;;;;;;2.92;0.30;;;;;;;10.43;68.41;95319.91;6184507;23;20021;-77
2023/04/01 09:01:26;;;;;;;0.68;0.38;;;;;;;10.39;64.67;95335.22;6171787;23;20021;-77
2023/04/01 09:04:15;;;;;;;2.10;0.73;;;;;;;10.34;67.38;95336.84;6184006;23;20025;-77
2023/04/01 09:06:53;;;;;;;0.77;0.28;;;;;;;10.38;67.68;95333.59;6184674;23;20027;-77
2023/04/01 09:09:35;;;;;;;1.23;0.40;;;;;;;10.42;66.27;95329.56;6184534;23;20031;-77
2023/04/01 09:12:46;;;;;;;0.22;0.13;;;;;;;10.46;66.92;95340.38;6184291;23;20017;-77
2023/04/01 09:15:53;;;;;;;0.35;0.08;;;;;;;10.40;65.87;95342.00;6064339;23;20027;-78
2023/04/01 09:19:07;;;;;;;0.20;0.20;;;;;;;10.41;65.44;95348.03;6057502;23;20033;-77
2023/04/01 09:22:06;;;;;;;0.47;0.20;;;;;;;10.38;64.77;95348.44;6162019;23;20025;-78
2023/04/01 09:24:45;;;;;;;1.30;0.15;;;;;;;10.36;66.55;95343.44;6161928;23;20032;-78
2023/04/01 09:27:26;;;;;;;0.98;0.25;;;;;;;10.36;65.92;95346.03;6184184;23;20017;-78
2023/04/01 09:30:33;;;;;;;6.07;0.40;;;;;;;10.37;65.52;95346.84;6184591;23;20032;-77
2023/04/01 09:33:17;;;;;;;1.05;0.30;;;;;;;10.37;66.32;95352.06;6064047;23;20041;-78
2023/04/01 09:35:49;;;;;;;0.10;0.10;;;;;;;10.37;64.26;95350.25;6177328;23;20021;-78
2023/04/01 09:38:23;;;;;;;0.20;0.20;;;;;;;10.37;63.92;95352.88;6185018;23;20027;-78
2023/04/01 09:40:57;;;;;;;0.68;0.30;;;;;;;10.40;64.74;95360.25;6184750;23;20032;-78
2023/04/01 09:43:29;;;;;;;0.65;0.22;;;;;;;10.40;63.44;95362.84;6183845;23;20478;-78
2023/04/01 09:46:27;;;;;;;0.82;0.30;;;;;;;10.41;62.97;95361.06;6184702;23;20021;-77
2023/04/01 09:49:30;;;;;;;0.25;0.20;;;;;;;10.39;63.71;95376.13;6148430;23;20025;-78
2023/04/01 09:52:10;;;;;;;0.90;0.28;;;;;;;10.37;63.54;95370.31;6183955;23;20025;-78
2023/04/01 09:54:58;;;;;;;0.60;0.20;;;;;;;10.35;66.35;95374.94;6184109;23;20027;-78
2023/04/01 09:57:56;;;;;;;0.22;0.10;;;;;;;10.34;66.54;95370.72;6184519;23;20028;-78
2023/04/01 10:00:59;;;;;;;0.17;0.17;;;;;;;10.32;65.60;95363.13;6179602;23;20025;-78
2023/04/01 10:04:15;;;;;;;0.65;0.20;;;;;;;10.34;65.56;95378.53;6182861;23;20021;-80
2023/04/01 10:07:18;;;;;;;0.17;0.10;;;;;;;10.31;65.56;95374.56;6063975;23;20468;-78
2023/04/01 10:10:11;;;;;;;0.82;0.20;;;;;;;10.31;66.49;95359.72;6185171;23;20099;-78
2023/04/01 10:13:08;;;;;;;0.50;0.20;;;;;;;10.34;66.18;95365.50;6185720;23;20023;-77
2023/04/01 10:15:56;;;;;;;0.65;0.52;;;;;;;10.35;68.37;95356.69;6186252;23;20032;-78
2023/04/01 10:19:02;;;;;;;0.43;0.17;;;;;;;10.37;66.79;95363.28;6186029;23;20024;-78
2023/04/01 10:21:55;;;;;;;0.22;0.10;;;;;;;10.37;67.79;95354.69;6121835;23;20157;-78
2023/04/01 10:24:50;;;;;;;0.30;0.30;;;;;;;10.40;68.27;95369.88;6144128;23;20028;-78
2023/04/01 10:27:31;;;;;;;0.40;0.30;;;;;;;10.41;67.03;95361.88;6173922;23;20021;-78
2023/04/01 10:30:27;;;;;;;1.55;0.40;;;;;;;10.44;67.60;95363.25;6185644;23;20021;-77
2023/04/01 10:33:18;;;;;;;0.68;0.10;;;;;;;10.41;66.60;95358.47;6186954;23;20024;-79
2023/04/01 10:36:11;;;;;;;1.70;0.43;;;;;;;10.41;67.35;95364.47;6202276;23;20028;-79
2023/04/01 10:39:18;;;;;;;0.05;0.00;;;;;;;10.45;66.02;95370.03;6196558;23;20103;-79
2023/04/01 10:42:16;;;;;;;1.27;0.50;;;;;;;10.42;67.58;95371.28;6186256;23;20067;-77
2023/04/01 10:45:25;;;;;;;0.20;0.10;;;;;;;10.43;67.12;95369.44;6186253;23;20021;-78
2023/04/01 10:48:21;;;;;;;0.20;0.20;;;;;;;10.34;66.56;95363.69;6145169;23;20027;-78
2023/04/01 10:51:11;;;;;;;0.50;0.30;;;;;;;10.33;68.56;95376.97;6186121;23;20451;-78
2023/04/01 10:53:47;;;;;;;0.40;0.20;;;;;;;10.32;67.79;95365.75;6186248;23;20029;-78
2023/04/01 10:56:39;;;;;;;0.20;0.20;;;;;;;10.35;66.97;95375.72;6185555;23;20017;-78
2023/04/01 10:59:44;;;;;;;0.28;0.25;;;;;;;10.34;67.75;95373.31;6185988;23;20021;-78
2023/04/01 11:03:02;;;;;;;0.10;0.10;;;;;;;10.33;67.66;95366.53;6185675;23;20109;-78
2023/04/01 11:06:06;;;;;;;0.50;0.10;;;;;;;10.33;66.17;95371.75;6185254;23;20029;-78
2023/04/01 11:09:01;;;;;;;;;;;;;;;10.38;66.67;95371.91;6179052;23;20509;-77
2023/04/01 11:12:08;;;;;;;0.13;0.10;;;;;;;10.37;66.32;95375.53;6185999;23;19938;-77
2023/04/01 11:15:06;;;;;;;1.00;0.30;;;;;;;10.37;65.43;95380.75;6159405;23;20465;-78
2023/04/01 11:18:14;;;;;;;0.50;0.20;;;;;;;10.36;65.84;95377.31;6105883;23;20104;-77
2023/04/01 11:21:15;;;;;;;1.95;0.10;;;;;;;10.37;66.31;95375.53;6182123;23;20095;-78
2023/04/01 11:24:00;;;;;;;0.20;0.20;;;;;;;10.35;68.04;95385.38;6185179;23;20036;-78
2023/04/01 11:26:51;;;;;;;0.10;0.10;;;;;;;10.36;67.81;95386.94;6155174;23;20018;-77
2023/04/01 11:29:38;;;;;;;0.35;0.22;;;;;;;10.38;68.61;95388.34;6155803;23;20030;-78
2023/04/01 11:32:30;;;;;;;0.50;0.20;;;;;;;10.40;67.10;95388.13;6154718;23;20112;-78
2023/04/01 11:35:13;;;;;;;0.20;0.20;;;;;;;10.34;68.59;95389.75;6155271;23;20021;-78
2023/04/01 11:37:52;;;;;;;0.32;0.15;;;;;;;10.32;67.82;95389.19;6155816;23;20025;-78
2023/04/01 11:40:32;;;;;;;0.43;0.30;;;;;;;10.30;67.10;95386.78;6155489;23;20021;-78
2023/04/01 11:43:07;;;;;;;0.13;0.05;;;;;;;10.29;68.07;95406.03;6155101;23;20333;-79
2023/04/01 11:45:40;;;;;;;0.35;0.10;;;;;;;10.27;67.92;95394.97;6155782;23;20017;-79
2023/04/01 11:48:24;;;;;;;0.68;0.20;;;;;;;10.30;68.83;95394.63;6155774;23;20028;-78
2023/04/01 11:51:11;;;;;;;0.20;0.17;;;;;;;10.34;69.16;95391.56;6156052;23;20154;-78
2023/04/01 11:53:49;;;;;;;0.93;0.20;;;;;;;10.35;70.16;95396.59;6155727;23;20073;-77
2023/04/01 11:56:34;;;;;;;0.22;0.22;;;;;;;10.41;70.45;95400.19;6155592;23;20104;-79
2023/04/01 11:59:27;;;;;;;1.02;0.30;;;;;;;10.46;69.45;95408.16;6155545;23;20021;-78
2023/04/01 12:02:07;;;;;;;0.77;0.40;;;;;;;10.49;68.54;95407.72;6130513;23;20022;-78
2023/04/01 12:04:54;;;;;;;1.13;0.50;;;;;;;10.46;67.20;95408.16;6155266;23;20018;-79
2023/04/01 12:07:33;;;;;;;0.50;0.20;;;;;;;10.45;68.92;95409.16;6155511;23;20101;-78
2023/04/01 12:10:13;;;;;;;0.75;0.17;;;;;;;10.46;69.30;95405.56;6155407;23;20027;-78
2023/04/01 12:12:52;;;;;;;0.47;0.10;;;;;;;10.43;68.96;95409.38;6154770;23;20096;-78
2023/04/01 12:15:36;;;;;;;0.30;0.17;;;;;;;10.41;67.72;95408.78;6155445;23;20021;-78
2023/04/01 12:18:15;;;;;;;1.77;0.20;;;;;;;10.44;68.44;95410.16;6154968;23;20025;-78
2023/04/01 12:20:50;;;;;;;0.17;0.10;;;;;;;10.46;68.83;95402.94;6155647;23;20021;-78
2023/04/01 12:23:43;;;;;;;1.25;0.32;;;;;;;10.47;69.59;95405.34;6155011;23;20036;-78